Pagrindinis puslapis
METAR-TAF:

METAR-TAF

Oro uostai :

Abadanas, Iranas

platuma: 30-22N, ilguma: 048-15E, Aukštis: 3 m

Dabartinis oras

Ataskaita buvo paskelbta 48 minutes, ne 04:00 UTC
Vėjas 6 kt iš Vakarų/Šiaurės Vakarų
Temperatūra 33°C
Drėgmė 30%
Slėgis 998 hPa
Matomumas 10 km arba daugiau
nėra debesų žemiau 1500 m ir nėra kamuolinių lietaus debesų

METAR: OIAA 160400Z 30006KT CAVOK 33/13 Q0998

Laikas: 09:18 (04:48 UTC)

Prognozė

Ataskaita buvo paskelbta 5 valandos ir 38 minutes, ne 23:10 UTC
Prognozė galioja nuo 16 metu 00 UTC su 17 metu 06 UTC
Vėjas 8 kt iš Vakarų
Matomumas: 7000 m
Laikinai
nuo 16 metu 00 UTC su 16 metu 04 UTC
Matomumas: 4000 m
Laikinai
nuo 16 metu 05 UTC su 16 metu 12 UTC
Vėjas 14 kt iš Šiaurės/Šiaurės Vakarų
Matomumas: 5000 m
dulkės
Laikinai
nuo 17 metu 00 UTC su 17 metu 06 UTC
Matomumas: 4000 m
migla

TAF: OIAA 152310Z 1600/1706 28008KT 7000 NSC TEMPO 1600/1604 4000 HZ/DU TEMPO 1605/1612 34014KT 5000 DU TEMPO 1700/1706 4000 HZ

Orai ataskaitas ir orų prognozės (METAR, TAF).

turimą stotys yra geltonos ir raudonos taškus žemėlapyje.

Perkelti pele per norėdami pamatyti stoties vardą.

Tada spustelėkite, norėdami matyti oro stebėjimo ir prognozės.

Norėdami pakeisti žemėlapį: spustelėkite ant žalios mygtukų su juodo kryžiaus žemyn,; žalią mygtuką su brūkšneliu, jei norite nutolinti; arba žalių rodyklių gretimoms žemėlapius.


METAR-TAF: